Time;durP1;ratioP1;P1;durP2;ratioP2;P2;SDS_P1;SDS_P2;PMS_P1;PMS_P2;Temp;Humidity;BMP_temperature;BMP_pressure;BME280_temperature;BME280_humidity;BME280_pressure;Samples;Min_cycle;Max_cycle;Signal;HPM_P1;HPM_P2
2023/10/28 12:23:49;;;;;;;13.45;6.97;;;;;;;;;;5106782;27;1385348;-66
2023/10/28 12:26:35;;;;;;;182.85;81.13;;;;;;;;;;5131271;28;20396;-73
2023/10/28 12:29:21;;;;;;;13.30;6.13;;;;;;;;;;5131735;28;20039;-73
2023/10/28 12:32:06;;;;;;;45.85;19.02;;;;;;;;;;5131542;28;20052;-72
2023/10/28 12:34:52;;;;;;;33.58;13.48;;;;;;;;;;5131624;28;20043;-72
2023/10/28 12:37:37;;;;;;;37.95;15.05;;;;;;;;;;5131533;28;20039;-72
2023/10/28 12:40:22;;;;;;;27.98;10.95;;;;;;;;;;5131260;28;20047;-72
2023/10/28 12:43:08;;;;;;;32.83;13.32;;;;;;;;;;5131247;28;20047;-72
2023/10/28 12:45:54;;;;;;;31.73;12.35;;;;;;;;;;5131619;28;20046;-72
2023/10/28 12:48:39;;;;;;;17.80;5.53;;;;;;;;;;5131497;28;20052;-72
2023/10/28 12:51:26;;;;;;;7.82;3.10;;;;;;;;;;5137391;27;20039;-72
2023/10/28 12:54:11;;;;;;;6.68;2.78;;;;;;;;;;5131332;28;20047;-74
2023/10/28 12:56:57;;;;;;;6.03;2.50;;;;;;;;;;5131473;28;20369;-74
2023/10/28 12:59:46;;;;;;;10.57;2.65;;;;;;;;;;5131320;28;20040;-70
2023/10/28 13:02:32;;;;;;;7.32;2.45;;;;;;;;;;5130801;28;20051;-73
2023/10/28 13:05:17;;;;;;;11.57;2.40;;;;;;;;;;5131380;28;20040;-72
2023/10/28 13:08:02;;;;;;;7.82;3.20;;;;;;;;;;5131057;28;20036;-73
2023/10/28 13:10:47;;;;;;;11.48;2.45;;;;;;;;;;5131749;28;20043;-74
2023/10/28 13:13:35;;;;;;;7.78;2.33;;;;;;;;;;5131235;28;20044;-74
2023/10/28 13:16:21;;;;;;;8.45;2.67;;;;;;;;;;5131431;28;20039;-74
2023/10/28 13:19:06;;;;;;;8.25;2.42;;;;;;;;;;5131153;28;20039;-74
2023/10/28 13:21:53;;;;;;;8.55;2.38;;;;;;;;;;5130690;28;20047;-74
2023/10/28 13:24:39;;;;;;;5.75;2.40;;;;;;;;;;5130999;28;20039;-74
2023/10/28 13:27:24;;;;;;;8.48;2.33;;;;;;;;;;5131208;28;20044;-74
2023/10/28 13:30:10;;;;;;;7.30;2.38;;;;;;;;;;5130899;28;20043;-74
2023/10/28 13:32:55;;;;;;;5.32;2.20;;;;;;;;;;5130025;28;20044;-75
2023/10/28 13:35:40;;;;;;;5.32;2.10;;;;;;;;;;5116862;28;20051;-75
2023/10/28 13:38:25;;;;;;;8.68;2.33;;;;;;;;;;5117056;28;20039;-74
2023/10/28 13:41:11;;;;;;;7.90;2.60;;;;;;;;;;5117011;28;20469;-75
2023/10/28 13:43:57;;;;;;;8.10;2.75;;;;;;;;;;5116891;28;20043;-75
2023/10/28 13:46:42;;;;;;;6.43;2.70;;;;;;;;;;5116802;28;20044;-75
2023/10/28 13:49:29;;;;;;;8.05;2.50;;;;;;;;;;5117112;28;20043;-75
2023/10/28 13:52:13;;;;;;;9.25;2.28;;;;;;;;;;5116624;28;20031;-74
2023/10/28 13:54:59;;;;;;;13.93;2.55;;;;;;;;;;5116635;28;20052;-75
2023/10/28 13:57:44;;;;;;;7.80;2.28;;;;;;;;;;5116501;28;20047;-75
2023/10/28 14:00:29;;;;;;;8.50;2.15;;;;;;;;;;5116612;28;20044;-75
2023/10/28 14:03:17;;;;;;;10.05;3.25;;;;;;;;;;5116353;28;20381;-75
2023/10/28 14:06:09;;;;;;;9.65;3.20;;;;;;;;;;5116841;28;20039;-75
2023/10/28 14:08:54;;;;;;;16.70;6.38;;;;;;;;;;5116126;28;20031;-74
2023/10/28 14:11:38;;;;;;;19.08;6.80;;;;;;;;;;5114334;28;20366;-75
2023/10/28 14:14:25;;;;;;;15.32;6.00;;;;;;;;;;5116036;28;20040;-75
2023/10/28 14:17:10;;;;;;;20.00;7.78;;;;;;;;;;5123075;28;20035;-75
2023/10/28 14:19:56;;;;;;;32.22;10.05;;;;;;;;;;5116159;28;20043;-75
2023/10/28 14:22:42;;;;;;;38.88;13.90;;;;;;;;;;5115356;28;20057;-75
2023/10/28 14:25:27;;;;;;;46.38;16.48;;;;;;;;;;5116183;28;20044;-74
2023/10/28 14:28:13;;;;;;;51.55;18.85;;;;;;;;;;5115697;28;20043;-75
2023/10/28 14:30:58;;;;;;;57.08;20.65;;;;;;;;;;5115921;28;20392;-74
2023/10/28 14:33:43;;;;;;;57.70;21.25;;;;;;;;;;5116233;28;20470;-74
2023/10/28 14:36:29;;;;;;;59.38;20.42;;;;;;;;;;5115570;28;20050;-75
2023/10/28 14:39:14;;;;;;;52.42;19.20;;;;;;;;;;5115031;28;20400;-74
2023/10/28 14:41:59;;;;;;;48.30;18.40;;;;;;;;;;5114921;28;20050;-74
2023/10/28 14:44:45;;;;;;;51.75;18.33;;;;;;;;;;5115313;28;20085;-74
2023/10/28 14:47:30;;;;;;;55.05;18.92;;;;;;;;;;5115479;28;20512;-74
2023/10/28 14:50:17;;;;;;;53.22;19.65;;;;;;;;;;5116706;28;20050;-76
2023/10/28 14:53:03;;;;;;;57.25;18.95;;;;;;;;;;5115527;28;20496;-74
2023/10/28 14:55:50;;;;;;;44.08;16.75;;;;;;;;;;5114225;28;20047;-75
2023/10/28 14:58:35;;;;;;;45.03;17.88;;;;;;;;;;5115129;28;20056;-75
2023/10/28 15:01:21;;;;;;;44.97;17.23;;;;;;;;;;5121286;28;20048;-74
2023/10/28 15:04:06;;;;;;;47.15;16.42;;;;;;;;;;5115055;28;20055;-74
2023/10/28 15:06:51;;;;;;;39.10;15.80;;;;;;;;;;5115140;28;20044;-74
2023/10/28 15:09:37;;;;;;;45.58;16.15;;;;;;;;;;5115272;28;20047;-74
2023/10/28 15:12:24;;;;;;;40.05;13.88;;;;;;;;;;5115098;28;20393;-74
2023/10/28 15:15:15;;;;;;;34.95;14.73;;;;;;;;;;5115713;28;20042;-75
2023/10/28 15:18:01;;;;;;;35.67;14.88;;;;;;;;;;5115013;28;20047;-75
2023/10/28 15:20:46;;;;;;;45.63;15.07;;;;;;;;;;5121909;28;20054;-75
2023/10/28 15:23:32;;;;;;;33.70;14.35;;;;;;;;;;5114369;28;20058;-75
2023/10/28 15:26:17;;;;;;;37.13;15.85;;;;;;;;;;5121072;28;20050;-75
2023/10/28 15:29:03;;;;;;;40.33;16.00;;;;;;;;;;5114919;28;20046;-75
2023/10/28 15:31:48;;;;;;;33.78;14.18;;;;;;;;;;5113742;28;20051;-75
2023/10/28 15:34:34;;;;;;;39.97;15.77;;;;;;;;;;5115069;28;20084;-75
2023/10/28 15:37:20;;;;;;;43.72;16.00;;;;;;;;;;5114615;28;20507;-75
2023/10/28 15:40:05;;;;;;;42.67;17.60;;;;;;;;;;5114908;28;20392;-75
2023/10/28 15:42:53;;;;;;;78.53;33.17;;;;;;;;;;5114536;28;20396;-71
2023/10/28 15:45:39;;;;;;;227.00;95.15;;;;;;;;;;5121280;28;20050;-73
2023/10/28 15:48:25;;;;;;;130.23;48.75;;;;;;;;;;5114455;28;20055;-72
2023/10/28 15:51:13;;;;;;;76.05;29.83;;;;;;;;;;5114252;28;20032;-72
2023/10/28 15:54:00;;;;;;;59.95;22.77;;;;;;;;;;5120743;28;20047;-72
2023/10/28 15:56:45;;;;;;;54.08;21.98;;;;;;;;;;5114173;28;20504;-72
2023/10/28 15:59:30;;;;;;;54.00;21.30;;;;;;;;;;5114048;28;20054;-72
2023/10/28 16:02:16;;;;;;;60.95;21.02;;;;;;;;;;5121108;28;20050;-72
2023/10/28 16:05:01;;;;;;;55.45;20.65;;;;;;;;;;5121273;28;20057;-72
2023/10/28 16:07:46;;;;;;;67.47;22.98;;;;;;;;;;5114113;28;20061;-72
2023/10/28 16:10:32;;;;;;;48.78;19.70;;;;;;;;;;5113854;28;20054;-72
2023/10/28 16:13:17;;;;;;;58.58;23.08;;;;;;;;;;5120872;28;20054;-72
2023/10/28 16:16:03;;;;;;;99.32;38.13;;;;;;;;;;5114193;28;20043;-71
2023/10/28 16:18:50;;;;;;;100.72;38.03;;;;;;;;;;5114303;28;20397;-72
2023/10/28 16:21:38;;;;;;;117.50;44.42;;;;;;;;;;5114412;28;20527;-72
2023/10/28 16:24:24;;;;;;;155.25;56.70;;;;;;;;;;5114787;28;20058;-72
2023/10/28 16:27:09;;;;;;;199.68;76.40;;;;;;;;;;5120853;28;20051;-72
2023/10/28 16:29:55;;;;;;;161.52;58.95;;;;;;;;;;5121502;28;20043;-72
2023/10/28 16:32:40;;;;;;;304.00;131.73;;;;;;;;;;5113999;28;20404;-71
2023/10/28 16:35:25;;;;;;;238.07;101.00;;;;;;;;;;5120790;28;20512;-72
2023/10/28 16:38:10;;;;;;;187.15;72.22;;;;;;;;;;5121115;28;20396;-71
2023/10/28 16:40:55;;;;;;;185.80;77.55;;;;;;;;;;5113839;28;20038;-71
2023/10/28 16:43:41;;;;;;;166.93;67.45;;;;;;;;;;5120518;28;20042;-71
2023/10/28 16:46:26;;;;;;;171.57;72.18;;;;;;;;;;5120186;28;20391;-72
2023/10/28 16:49:12;;;;;;;107.97;43.70;;;;;;;;;;5120646;28;20074;-72
2023/10/28 16:51:57;;;;;;;239.18;107.03;;;;;;;;;;5114056;28;20046;-72
2023/10/28 16:54:42;;;;;;;173.07;73.20;;;;;;;;;;5120558;28;20050;-71
2023/10/28 16:57:27;;;;;;;134.60;51.83;;;;;;;;;;5120941;28;20063;-73
2023/10/28 17:00:13;;;;;;;115.57;45.45;;;;;;;;;;5112528;28;20058;-72
2023/10/28 17:02:59;;;;;;;90.03;39.92;;;;;;;;;;5120279;28;20400;-72
2023/10/28 17:05:46;;;;;;;74.82;33.08;;;;;;;;;;5113590;28;20409;-72
2023/10/28 17:08:31;;;;;;;47.78;22.52;;;;;;;;;;5120922;28;20047;-72
2023/10/28 17:11:18;;;;;;;43.72;19.98;;;;;;;;;;5123708;28;20503;-72
2023/10/28 17:14:03;;;;;;;38.30;18.77;;;;;;;;;;5124226;28;20055;-72
2023/10/28 17:16:49;;;;;;;38.35;18.38;;;;;;;;;;5116973;28;20507;-72
2023/10/28 17:19:34;;;;;;;35.20;17.90;;;;;;;;;;5116907;28;20058;-72
2023/10/28 17:22:24;;;;;;;35.25;17.40;;;;;;;;;;5121640;28;20046;-72
2023/10/28 17:25:09;;;;;;;34.50;16.30;;;;;;;;;;5117299;28;20046;-72
2023/10/28 17:27:55;;;;;;;30.98;15.90;;;;;;;;;;5124053;28;20074;-72
2023/10/28 17:30:42;;;;;;;34.70;16.13;;;;;;;;;;5124006;28;20043;-74
2023/10/28 17:33:28;;;;;;;31.63;15.27;;;;;;;;;;5115699;28;20385;-74
2023/10/28 17:36:14;;;;;;;70.53;27.23;;;;;;;;;;5116959;28;20054;-75
2023/10/28 17:38:59;;;;;;;53.50;23.80;;;;;;;;;;5116880;28;20054;-75
2023/10/28 17:41:49;;;;;;;43.88;16.67;;;;;;;;;;5117236;28;20047;-75
2023/10/28 17:44:34;;;;;;;43.00;16.40;;;;;;;;;;5117071;28;20043;-74
2023/10/28 17:47:19;;;;;;;35.85;15.55;;;;;;;;;;5117234;28;20055;-75
2023/10/28 17:50:06;;;;;;;39.22;15.55;;;;;;;;;;5116363;28;20051;-75
2023/10/28 17:52:51;;;;;;;28.85;14.43;;;;;;;;;;5117451;28;20059;-75
2023/10/28 17:55:37;;;;;;;30.33;14.77;;;;;;;;;;5124162;28;20043;-75
2023/10/28 17:58:24;;;;;;;30.48;14.80;;;;;;;;;;5125097;28;20427;-74
2023/10/28 18:01:14;;;;;;;30.27;14.55;;;;;;;;;;5129793;28;20036;-75
2023/10/28 18:04:00;;;;;;;33.20;14.48;;;;;;;;;;5123446;28;20043;-75
2023/10/28 18:06:46;;;;;;;29.45;14.15;;;;;;;;;;5123863;28;20040;-75
2023/10/28 18:09:33;;;;;;;26.92;13.68;;;;;;;;;;5124075;28;20043;-74
2023/10/28 18:12:20;;;;;;;28.50;13.60;;;;;;;;;;5123816;28;20043;-79
2023/10/28 18:15:06;;;;;;;30.75;13.27;;;;;;;;;;5116532;28;20475;-74
2023/10/28 18:18:10;;;;;;;29.45;13.75;;;;;;;;;;5116656;28;20048;-74
2023/10/28 18:20:57;;;;;;;27.85;12.55;;;;;;;;;;5116041;28;20063;-73
2023/10/28 18:23:45;;;;;;;25.13;12.68;;;;;;;;;;5116654;28;20058;-74
2023/10/28 18:26:31;;;;;;;26.75;12.43;;;;;;;;;;5116153;28;20051;-74
2023/10/28 18:29:17;;;;;;;27.70;12.93;;;;;;;;;;5115978;28;20054;-74
2023/10/28 18:32:03;;;;;;;33.88;13.73;;;;;;;;;;5115961;28;20043;-74
2023/10/28 18:34:51;;;;;;;29.13;12.48;;;;;;;;;;5115847;28;20044;-74
2023/10/28 18:37:38;;;;;;;25.17;13.00;;;;;;;;;;5115866;28;20499;-74
2023/10/28 18:40:23;;;;;;;27.05;13.38;;;;;;;;;;5115717;28;20361;-74
2023/10/28 18:43:09;;;;;;;31.17;14.13;;;;;;;;;;5122098;28;20051;-74
2023/10/28 18:45:54;;;;;;;31.38;14.07;;;;;;;;;;5115654;28;20051;-74
2023/10/28 18:48:40;;;;;;;32.20;13.77;;;;;;;;;;5115653;28;20046;-73
2023/10/28 18:51:27;;;;;;;83.57;35.67;;;;;;;;;;5115332;28;20046;-73
2023/10/28 18:54:12;;;;;;;66.80;31.02;;;;;;;;;;5115659;28;20050;-73
2023/10/28 18:56:57;;;;;;;50.25;21.02;;;;;;;;;;5115459;28;20047;-73
2023/10/28 18:59:43;;;;;;;33.35;15.18;;;;;;;;;;5115717;28;20054;-73
2023/10/28 19:02:29;;;;;;;29.10;14.32;;;;;;;;;;5115426;28;20047;-73
2023/10/28 19:05:13;;;;;;;25.30;13.52;;;;;;;;;;5114600;28;20054;-73
2023/10/28 19:08:00;;;;;;;42.88;20.33;;;;;;;;;;5115077;28;20117;-74
2023/10/28 19:10:52;;;;;;;24.73;13.43;;;;;;;;;;5115547;28;20055;-73
2023/10/28 19:13:37;;;;;;;24.88;13.27;;;;;;;;;;5116710;28;20050;-74
2023/10/28 19:16:22;;;;;;;30.50;13.10;;;;;;;;;;5114615;28;20050;-73
2023/10/28 19:19:09;;;;;;;26.50;13.05;;;;;;;;;;5115438;28;20054;-73
2023/10/28 19:21:54;;;;;;;24.92;12.13;;;;;;;;;;5115113;28;20058;-73
2023/10/28 19:24:39;;;;;;;30.55;16.42;;;;;;;;;;5114460;28;20042;-73
2023/10/28 19:27:25;;;;;;;25.58;12.70;;;;;;;;;;5115105;28;20393;-74
2023/10/28 19:30:11;;;;;;;30.88;13.80;;;;;;;;;;5114943;28;20046;-74
2023/10/28 19:33:03;;;;;;;51.97;23.42;;;;;;;;;;5115793;28;20062;-72
2023/10/28 19:35:49;;;;;;;195.18;76.97;;;;;;;;;;5114839;28;20055;-75
2023/10/28 19:38:35;;;;;;;169.05;60.17;;;;;;;;;;5115092;28;20051;-73
2023/10/28 19:41:22;;;;;;;144.88;51.10;;;;;;;;;;5121895;28;20042;-75
2023/10/28 19:44:07;;;;;;;136.38;55.60;;;;;;;;;;5113601;28;20050;-73
2023/10/28 19:46:53;;;;;;;69.53;30.10;;;;;;;;;;5113581;28;20074;-73
2023/10/28 19:49:38;;;;;;;114.65;43.53;;;;;;;;;;5113643;28;20051;-73
2023/10/28 19:52:27;;;;;;;174.93;73.55;;;;;;;;;;5114494;28;20046;-73
2023/10/28 19:55:12;;;;;;;76.93;30.30;;;;;;;;;;5114951;28;20066;-74
2023/10/28 19:57:57;;;;;;;79.55;34.53;;;;;;;;;;5114125;28;20384;-73
2023/10/28 20:00:42;;;;;;;60.15;24.58;;;;;;;;;;5114619;28;20054;-73
2023/10/28 20:03:28;;;;;;;42.42;18.40;;;;;;;;;;5114313;28;20046;-73
2023/10/28 20:06:14;;;;;;;194.88;84.50;;;;;;;;;;5114340;28;20499;-73
2023/10/28 20:08:59;;;;;;;122.65;48.97;;;;;;;;;;5114351;28;20508;-73
2023/10/28 20:11:44;;;;;;;175.18;73.13;;;;;;;;;;5114162;28;20066;-73
2023/10/28 20:14:30;;;;;;;47.72;22.27;;;;;;;;;;5114280;28;20059;-73
2023/10/28 20:17:15;;;;;;;36.65;15.73;;;;;;;;;;5113621;28;20050;-73
2023/10/28 20:20:00;;;;;;;;;;;;;;;;;;5120626;28;20050;-72
2023/10/28 20:22:46;;;;;;;147.90;58.00;;;;;;;;;;5116525;28;19922;-74
